Alaska Titan — WDE4789 — position and weather

sailwx.info

Track history (hours):
 
Tides and Currents Weather Stations Pressure Air Temp Water Temp Dewpoint Dewpoint Depression Visibility Wind Speed Wind Dir Waves Ship Positions

Alaska Titan

Owner: WESTERN TOWBOAT CO, Seattle, WA. More information available from US FCC via Universal Licensing System and Coast Guard Vessel Documentation Center.

Last reported at 2018-Apr-26 12:00 UTC. Time now 2018-Apr-26 12:58 UTC.
Position N 59°06' W 139°06'.

Length 40 m.

Type: Tow > 200 m length. MMSI: 367357890.

Wind at 4 knots

Barometer 1024.0 mb
Air temperature 5.5 ° C

Date/timePositionNaut miles runAvg speedWind from/ knotsBaromVisibWave heightAir tempDewpointWater temp
2018-Apr-26 12:00N 59°06' W 139°06'50 8.4 1024.0 5.5
2018-Apr-26 06:00N 58°36' W 137°48'59 6.1 220 / 121026.0 0.3 7.5
2018-Apr-25 20:15N 58°15' W 136°02'2 9.9
2018-Apr-25 20:00N 58°16' W 135°57'5 8.9
2018-Apr-25 19:30N 58°18' W 135°49'3 5.0
2018-Apr-25 18:59N 58°17' W 135°45'3 5.1
2018-Apr-25 18:27N 58°16' W 135°40'3 1.2
2018-Apr-25 15:53N 58°16' W 135°34'2 4.4
2018-Apr-25 15:26N 58°16' W 135°30'2 4.9
2018-Apr-25 14:57N 58°15' W 135°26'3 1.7
2018-Apr-25 13:04N 58°14' W 135°31'1 5.4
2018-Apr-25 12:55N 58°14' W 135°33'3 5.2
2018-Apr-25 12:25N 58°15' W 135°37'2 4.7
2018-Apr-25 12:00N 58°16' W 135°40'2 3.6
2018-Apr-25 11:30N 58°17' W 135°37'2 4.9
2018-Apr-25 11:00N 58°16' W 135°32'3 5.2
2018-Apr-25 10:30N 58°15' W 135°28'3 1.5
2018-Apr-25 08:15N 58°14' W 135°34'1 4.7
2018-Apr-25 08:00N 58°14' W 135°36'2 4.7
2018-Apr-25 07:28N 58°16' W 135°39'2 3.8
2018-Apr-25 07:00N 58°16' W 135°36'3 4.9
2018-Apr-25 06:29N 58°16' W 135°32'2 0.7
2018-Apr-25 03:39N 58°14' W 135°31'3 5.5
2018-Apr-25 03:11N 58°15' W 135°36'2 5.4
2018-Apr-25 02:54N 58°15' W 135°38'1 2.6
2018-Apr-25 02:29N 58°16' W 135°38'2 4.2
2018-Apr-25 01:57N 58°16' W 135°34'2 4.6
2018-Apr-25 01:26N 58°15' W 135°30'4 1.5
2018-Apr-24 22:49N 58°15' W 135°37'2 5.0
2018-Apr-24 22:30N 58°16' W 135°40'0 0.1
2018-Apr-24 18:21N 58°16' W 135°39'2 4.4
2018-Apr-24 17:54N 58°16' W 135°43'9 2.5
2018-Apr-24 14:27N 58°15' W 135°26'4 1.9
2018-Apr-24 12:10N 58°14' W 135°34'1 5.3
2018-Apr-24 11:55N 58°15' W 135°37'2 4.7
2018-Apr-24 11:30N 58°16' W 135°39'2 3.8
2018-Apr-24 10:59N 58°16' W 135°35'3 4.9
2018-Apr-24 10:27N 58°16' W 135°30'2 5.1
2018-Apr-24 10:00N 58°15' W 135°26'2 1.8
2018-Apr-24 08:44N 58°13' W 135°26'1 4.7
2018-Apr-24 08:28N 58°13' W 135°28'4 4.6
2018-Apr-24 07:40N 58°14' W 135°35'1 4.4
2018-Apr-24 07:27N 58°15' W 135°36'2 4.4
2018-Apr-24 07:00N 58°16' W 135°40'2 3.2
2018-Apr-24 06:30N 58°17' W 135°41'3 5.1
2018-Apr-24 05:59N 58°16' W 135°36'3 5.2
2018-Apr-24 05:28N 58°16' W 135°31'2 0.9
2018-Apr-24 02:47N 58°13' W 135°30'2 4.8
2018-Apr-24 02:22N 58°14' W 135°34'2 5.0
2018-Apr-24 01:55N 58°15' W 135°38'2 4.7
2018-Apr-24 01:28N 58°16' W 135°41'1 2.5
2018-Apr-24 01:00N 58°17' W 135°40'5 1.5
2018-Apr-23 21:35N 58°14' W 135°33'1 4.5
2018-Apr-23 21:23N 58°14' W 135°35'2 4.6
2018-Apr-23 20:56N 58°15' W 135°38'2 3.8
2018-Apr-23 20:29N 58°16' W 135°40'2 3.9
2018-Apr-23 20:00N 58°16' W 135°36'2 0.6
2018-Apr-23 16:14N 58°14' W 135°35'1 3.8
2018-Apr-23 15:53N 58°15' W 135°38'2 3.9
2018-Apr-23 15:28N 58°16' W 135°40'2 4.0
2018-Apr-23 15:00N 58°17' W 135°43'1 2.2
2018-Apr-23 14:30N 58°18' W 135°41'3 5.5
2018-Apr-23 13:59N 58°17' W 135°36'3 5.5
2018-Apr-23 13:30N 58°16' W 135°31'3 5.5
2018-Apr-23 12:59N 58°15' W 135°26'3 1.5
2018-Apr-23 11:00N 58°14' W 135°31'3 4.2
2018-Apr-23 10:18N 58°14' W 135°36'1 4.0
2018-Apr-23 09:59N 58°15' W 135°38'2 3.6
2018-Apr-23 09:30N 58°16' W 135°39'3 5.2
2018-Apr-23 09:00N 58°16' W 135°34'3 5.3
2018-Apr-23 08:28N 58°16' W 135°29'3 5.3
2018-Apr-23 07:59N 58°15' W 135°24'2 2.3
2018-Apr-23 06:55N 58°13' W 135°25'3 4.1
2018-Apr-23 06:07N 58°14' W 135°31'1 4.1
2018-Apr-23 05:58N 58°14' W 135°32'2 4.0
2018-Apr-23 05:26N 58°14' W 135°36'2 3.7
2018-Apr-23 04:59N 58°16' W 135°38'2 3.3
2018-Apr-23 04:28N 58°16' W 135°35'3 5.7
2018-Apr-23 04:00N 58°16' W 135°30'271 5.9
2018-Apr-21 06:15N 54°36' W 130°44'4 9.1
2018-Apr-21 05:48N 54°32' W 130°42'3 9.3
2018-Apr-21 05:29N 54°29' W 130°41'510.1
2018-Apr-21 05:00N 54°24' W 130°38'511.0
2018-Apr-21 04:30N 54°19' W 130°35'510.9
2018-Apr-21 04:00N 54°14' W 130°31'510.4
2018-Apr-21 03:30N 54°10' W 130°26'510.3
2018-Apr-21 03:00N 54°06' W 130°21'510.2
2018-Apr-21 02:30N 54°02' W 130°15'510.5
2018-Apr-21 02:01N 53°57' W 130°12'5 9.6
2018-Apr-21 01:30N 53°53' W 130°17'108 7.3
2018-Apr-20 10:44N 52°28' W 128°27'2 9.7
2018-Apr-20 10:29N 52°26' W 128°29'4 9.2
2018-Apr-20 10:00N 52°22' W 128°32'5 8.6
2018-Apr-20 09:29N 52°17' W 128°29'4 8.4
2018-Apr-20 09:00N 52°16' W 128°24'4 8.9
2018-Apr-20 08:30N 52°15' W 128°16'4 7.3
2018-Apr-20 08:00N 52°16' W 128°11'4 7.3
2018-Apr-20 07:30N 52°18' W 128°06'4 7.5
2018-Apr-20 07:01N 52°18' W 127°59'4 6.8
2018-Apr-20 06:29N 52°16' W 127°55'4 8.0
2018-Apr-20 06:00N 52°12' W 127°54'4 8.0
2018-Apr-20 05:30N 52°08' W 127°53'5 9.5
2018-Apr-20 05:00N 52°04' W 127°55'5 9.5
2018-Apr-20 04:30N 51°59' W 127°56'5 9.4
2018-Apr-20 04:01N 51°54' W 127°56'5 9.5
2018-Apr-20 03:31N 51°50' W 127°56'4 8.8
2018-Apr-20 03:01N 51°45' W 127°56'510.1
2018-Apr-20 02:30N 51°40' W 127°55'510.0
2018-Apr-20 02:00N 51°35' W 127°53'5 9.5
2018-Apr-20 01:30N 51°31' W 127°52'5 9.2
2018-Apr-20 00:56N 51°25' W 127°52'6 9.1
2018-Apr-20 00:15N 51°19' W 127°54'4 8.7
2018-Apr-19 23:44N 51°15' W 127°52'11 7.9
2018-Apr-19 22:19N 51°05' W 127°43'3 8.8
2018-Apr-19 22:00N 51°03' W 127°40'4 8.4
2018-Apr-19 21:30N 50°60' W 127°36'14 8.7
2018-Apr-19 19:50N 50°51' W 127°18'3 9.4
2018-Apr-19 19:30N 50°49' W 127°14'5 9.4
2018-Apr-19 19:00N 50°46' W 127°09'7 9.4
2018-Apr-19 18:18N 50°43' W 126°59'5 9.2
2018-Apr-19 17:48N 50°41' W 126°53'6 9.5
2018-Apr-19 17:13N 50°38' W 126°46'511.2
2018-Apr-19 16:49N 50°34' W 126°41'5 9.1
2018-Apr-19 16:14N 50°31' W 126°35'210.8
2018-Apr-19 16:00N 50°30' W 126°31'38 8.7
2018-Apr-19 11:42N 50°22' W 125°34'2 6.3
2018-Apr-19 11:23N 50°21' W 125°31'3 7.1
2018-Apr-19 11:00N 50°20' W 125°27'4 7.7
2018-Apr-19 10:30N 50°17' W 125°24'4 9.0
2018-Apr-19 10:00N 50°13' W 125°22'4 8.5
2018-Apr-19 09:30N 50°08' W 125°21'4 8.7
2018-Apr-19 09:01N 50°05' W 125°17'4 8.8
2018-Apr-19 08:30N 50°02' W 125°13'3 6.9
2018-Apr-19 08:00N 49°58' W 125°11'3 6.1
2018-Apr-19 07:30N 49°56' W 125°07'3 6.0
2018-Apr-19 07:00N 49°54' W 125°04'3 6.0
2018-Apr-19 06:30N 49°53' W 125°00'1 2.2
2018-Apr-19 06:01N 49°52' W 124°59'1 1.3
2018-Apr-19 05:30N 49°53' W 124°59'2 3.6
2018-Apr-19 05:00N 49°52' W 125°01'3 6.2
2018-Apr-19 04:30N 49°50' W 124°58'3 6.2
2018-Apr-19 04:00N 49°48' W 124°54'3 6.0
2018-Apr-19 03:30N 49°46' W 124°50'3 6.0
2018-Apr-19 03:00N 49°45' W 124°46'3 5.9
2018-Apr-19 02:31N 49°43' W 124°42'3 6.0
2018-Apr-19 02:00N 49°41' W 124°38'3 5.9
2018-Apr-19 01:30N 49°39' W 124°35'3 5.7
2018-Apr-19 01:00N 49°38' W 124°31'3 5.1
2018-Apr-19 00:29N 49°36' W 124°28'4 6.2
2018-Apr-18 23:55N 49°34' W 124°23'27 6.8
2018-Apr-18 19:56N 49°21' W 123°48'4 8.6
2018-Apr-18 19:30N 49°18' W 123°43'4 8.5
2018-Apr-18 18:59N 49°15' W 123°38'4 8.6
2018-Apr-18 18:30N 49°13' W 123°33'4 8.7
2018-Apr-18 18:00N 49°09' W 123°29'5 8.7
2018-Apr-18 17:24N 49°06' W 123°23'3 8.7
2018-Apr-18 17:00N 49°03' W 123°20'4 8.7
2018-Apr-18 16:30N 49°00' W 123°15'4 8.3
2018-Apr-18 15:59N 48°58' W 123°09'4 8.1
2018-Apr-18 15:26N 48°55' W 123°04'6 8.7
2018-Apr-18 14:44N 48°51' W 122°57'2 9.5
2018-Apr-18 14:29N 48°49' W 122°55'5 9.2
2018-Apr-18 14:00N 48°46' W 122°49'5 9.4
2018-Apr-18 13:29N 48°43' W 122°44'5 9.3
2018-Apr-18 12:59N 48°38' W 122°44'510.4
2018-Apr-18 12:29N 48°33' W 122°45'511.0
2018-Apr-18 12:00N 48°28' W 122°44'610.4
2018-Apr-18 11:27N 48°22' W 122°45'5 9.7
2018-Apr-18 10:56N 48°17' W 122°47'4 8.9
2018-Apr-18 10:30N 48°14' W 122°48'10 7.9
2018-Apr-18 09:16N 48°06' W 122°39'10 9.3
2018-Apr-18 08:10N 47°57' W 122°32'210.2
2018-Apr-18 08:00N 47°56' W 122°30'510.2
2018-Apr-18 07:30N 47°51' W 122°28'510.1
2018-Apr-18 07:00N 47°46' W 122°26'510.3
2018-Apr-18 06:30N 47°41' W 122°27'5 9.3
2018-Apr-18 06:00N 47°37' W 122°24'3 4.7
2018-Apr-18 05:28N 47°35' W 122°21'0 0.1
2018-Apr-18 04:58N 47°35' W 122°21'1 1.4
2018-Apr-18 04:30N 47°36' W 122°22'0 0.4
2018-Apr-18 04:00N 47°35' W 122°22'0 0.0
2018-Apr-18 03:30N 47°35' W 122°22'0 0.2
2018-Apr-18 03:00N 47°35' W 122°22'0 0.2
2018-Apr-18 02:30N 47°35' W 122°22'0 0.0
2018-Apr-18 02:00N 47°35' W 122°22'0 0.2
2018-Apr-18 01:30N 47°35' W 122°22'0 0.1
2018-Apr-18 01:00N 47°36' W 122°22'0 0.2
2018-Apr-18 00:30N 47°36' W 122°22'0 0.2
2018-Apr-18 00:00N 47°36' W 122°22'0 0.1
2018-Apr-17 23:31N 47°36' W 122°22'1 1.4
2018-Apr-17 23:01N 47°35' W 122°21'510.4
2018-Apr-17 22:31N 47°39' W 122°26'2 3.9
2018-Apr-17 22:01N 47°40' W 122°24'1 2.8
2018-Apr-17 21:31N 47°39' W 122°22'0 0.1
2018-Apr-17 21:01N 47°39' W 122°22'0 0.1
2018-Apr-17 20:31N 47°39' W 122°22'0 0.1
2018-Apr-17 20:01N 47°39' W 122°22'0 0.0
2018-Apr-17 19:31N 47°39' W 122°22'0 0.1
2018-Apr-17 19:00N 47°39' W 122°22'0 0.1
2018-Apr-17 18:31N 47°39' W 122°22'0 0.0
2018-Apr-17 18:00N 47°39' W 122°22'0 0.1
2018-Apr-17 17:30N 47°39' W 122°22'0 0.0
2018-Apr-17 17:00N 47°39' W 122°22'0 0.0
2018-Apr-17 16:31N 47°39' W 122°22'0 0.0
2018-Apr-17 16:00N 47°39' W 122°22'0 0.0
2018-Apr-17 15:30N 47°39' W 122°22'  
Track history (hours):
 
Tides and Currents Weather Stations Pressure Air Temp Water Temp Dewpoint Dewpoint Depression Visibility Wind Speed Wind Dir Waves Ship Positions

Alaska Titan

Owner: WESTERN TOWBOAT CO, Seattle, WA. More information available from US FCC via Universal Licensing System and Coast Guard Vessel Documentation Center.

Last reported at 2018-Apr-26 12:00 UTC. Time now 2018-Apr-26 12:58 UTC.
Position N 59°06' W 139°06'.

Length 40 m.

Type: Tow > 200 m length. MMSI: 367357890.

Wind at 4 knots

Barometer 1024.0 mb
Air temperature 5.5 ° C

Date/timePositionNaut miles runAvg speedWind from/ knotsBaromVisibWave heightAir tempDewpointWater temp
2018-Apr-26 12:00N 59°06' W 139°06'50 8.4 1024.0 5.5
2018-Apr-26 06:00N 58°36' W 137°48'59 6.1 220 / 121026.0 0.3 7.5
2018-Apr-25 20:15N 58°15' W 136°02'2 9.9
2018-Apr-25 20:00N 58°16' W 135°57'5 8.9
2018-Apr-25 19:30N 58°18' W 135°49'3 5.0
2018-Apr-25 18:59N 58°17' W 135°45'3 5.1
2018-Apr-25 18:27N 58°16' W 135°40'3 1.2
2018-Apr-25 15:53N 58°16' W 135°34'2 4.4
2018-Apr-25 15:26N 58°16' W 135°30'2 4.9
2018-Apr-25 14:57N 58°15' W 135°26'3 1.7
2018-Apr-25 13:04N 58°14' W 135°31'1 5.4
2018-Apr-25 12:55N 58°14' W 135°33'3 5.2
2018-Apr-25 12:25N 58°15' W 135°37'2 4.7
2018-Apr-25 12:00N 58°16' W 135°40'2 3.6
2018-Apr-25 11:30N 58°17' W 135°37'2 4.9
2018-Apr-25 11:00N 58°16' W 135°32'3 5.2
2018-Apr-25 10:30N 58°15' W 135°28'3 1.5
2018-Apr-25 08:15N 58°14' W 135°34'1 4.7
2018-Apr-25 08:00N 58°14' W 135°36'2 4.7
2018-Apr-25 07:28N 58°16' W 135°39'2 3.8
2018-Apr-25 07:00N 58°16' W 135°36'3 4.9
2018-Apr-25 06:29N 58°16' W 135°32'2 0.7
2018-Apr-25 03:39N 58°14' W 135°31'3 5.5
2018-Apr-25 03:11N 58°15' W 135°36'2 5.4
2018-Apr-25 02:54N 58°15' W 135°38'1 2.6
2018-Apr-25 02:29N 58°16' W 135°38'2 4.2
2018-Apr-25 01:57N 58°16' W 135°34'2 4.6
2018-Apr-25 01:26N 58°15' W 135°30'4 1.5
2018-Apr-24 22:49N 58°15' W 135°37'2 5.0
2018-Apr-24 22:30N 58°16' W 135°40'0 0.1
2018-Apr-24 18:21N 58°16' W 135°39'2 4.4
2018-Apr-24 17:54N 58°16' W 135°43'9 2.5
2018-Apr-24 14:27N 58°15' W 135°26'4 1.9
2018-Apr-24 12:10N 58°14' W 135°34'1 5.3
2018-Apr-24 11:55N 58°15' W 135°37'2 4.7
2018-Apr-24 11:30N 58°16' W 135°39'2 3.8
2018-Apr-24 10:59N 58°16' W 135°35'3 4.9
2018-Apr-24 10:27N 58°16' W 135°30'2 5.1
2018-Apr-24 10:00N 58°15' W 135°26'2 1.8
2018-Apr-24 08:44N 58°13' W 135°26'1 4.7
2018-Apr-24 08:28N 58°13' W 135°28'4 4.6
2018-Apr-24 07:40N 58°14' W 135°35'1 4.4
2018-Apr-24 07:27N 58°15' W 135°36'2 4.4
2018-Apr-24 07:00N 58°16' W 135°40'2 3.2
2018-Apr-24 06:30N 58°17' W 135°41'3 5.1
2018-Apr-24 05:59N 58°16' W 135°36'3 5.2
2018-Apr-24 05:28N 58°16' W 135°31'2 0.9
2018-Apr-24 02:47N 58°13' W 135°30'2 4.8
2018-Apr-24 02:22N 58°14' W 135°34'2 5.0
2018-Apr-24 01:55N 58°15' W 135°38'2 4.7
2018-Apr-24 01:28N 58°16' W 135°41'1 2.5
2018-Apr-24 01:00N 58°17' W 135°40'5 1.5
2018-Apr-23 21:35N 58°14' W 135°33'1 4.5
2018-Apr-23 21:23N 58°14' W 135°35'2 4.6
2018-Apr-23 20:56N 58°15' W 135°38'2 3.8
2018-Apr-23 20:29N 58°16' W 135°40'2 3.9
2018-Apr-23 20:00N 58°16' W 135°36'2 0.6
2018-Apr-23 16:14N 58°14' W 135°35'1 3.8
2018-Apr-23 15:53N 58°15' W 135°38'2 3.9
2018-Apr-23 15:28N 58°16' W 135°40'2 4.0
2018-Apr-23 15:00N 58°17' W 135°43'1 2.2
2018-Apr-23 14:30N 58°18' W 135°41'3 5.5
2018-Apr-23 13:59N 58°17' W 135°36'3 5.5
2018-Apr-23 13:30N 58°16' W 135°31'3 5.5
2018-Apr-23 12:59N 58°15' W 135°26'3 1.5
2018-Apr-23 11:00N 58°14' W 135°31'3 4.2
2018-Apr-23 10:18N 58°14' W 135°36'1 4.0
2018-Apr-23 09:59N 58°15' W 135°38'2 3.6
2018-Apr-23 09:30N 58°16' W 135°39'3 5.2
2018-Apr-23 09:00N 58°16' W 135°34'3 5.3
2018-Apr-23 08:28N 58°16' W 135°29'3 5.3
2018-Apr-23 07:59N 58°15' W 135°24'2 2.3
2018-Apr-23 06:55N 58°13' W 135°25'3 4.1
2018-Apr-23 06:07N 58°14' W 135°31'1 4.1
2018-Apr-23 05:58N 58°14' W 135°32'2 4.0
2018-Apr-23 05:26N 58°14' W 135°36'2 3.7
2018-Apr-23 04:59N 58°16' W 135°38'2 3.3
2018-Apr-23 04:28N 58°16' W 135°35'3 5.7
2018-Apr-23 04:00N 58°16' W 135°30'271 5.9
2018-Apr-21 06:15N 54°36' W 130°44'4 9.1
2018-Apr-21 05:48N 54°32' W 130°42'3 9.3
2018-Apr-21 05:29N 54°29' W 130°41'510.1
2018-Apr-21 05:00N 54°24' W 130°38'511.0
2018-Apr-21 04:30N 54°19' W 130°35'510.9
2018-Apr-21 04:00N 54°14' W 130°31'510.4
2018-Apr-21 03:30N 54°10' W 130°26'510.3
2018-Apr-21 03:00N 54°06' W 130°21'510.2
2018-Apr-21 02:30N 54°02' W 130°15'510.5
2018-Apr-21 02:01N 53°57' W 130°12'5 9.6
2018-Apr-21 01:30N 53°53' W 130°17'108 7.3
2018-Apr-20 10:44N 52°28' W 128°27'2 9.7
2018-Apr-20 10:29N 52°26' W 128°29'4 9.2
2018-Apr-20 10:00N 52°22' W 128°32'5 8.6
2018-Apr-20 09:29N 52°17' W 128°29'4 8.4
2018-Apr-20 09:00N 52°16' W 128°24'4 8.9
2018-Apr-20 08:30N 52°15' W 128°16'4 7.3
2018-Apr-20 08:00N 52°16' W 128°11'4 7.3
2018-Apr-20 07:30N 52°18' W 128°06'4 7.5
2018-Apr-20 07:01N 52°18' W 127°59'4 6.8
2018-Apr-20 06:29N 52°16' W 127°55'4 8.0
2018-Apr-20 06:00N 52°12' W 127°54'4 8.0
2018-Apr-20 05:30N 52°08' W 127°53'5 9.5
2018-Apr-20 05:00N 52°04' W 127°55'5 9.5
2018-Apr-20 04:30N 51°59' W 127°56'5 9.4
2018-Apr-20 04:01N 51°54' W 127°56'5 9.5
2018-Apr-20 03:31N 51°50' W 127°56'4 8.8
2018-Apr-20 03:01N 51°45' W 127°56'510.1
2018-Apr-20 02:30N 51°40' W 127°55'510.0
2018-Apr-20 02:00N 51°35' W 127°53'5 9.5
2018-Apr-20 01:30N 51°31' W 127°52'5 9.2
2018-Apr-20 00:56N 51°25' W 127°52'6 9.1
2018-Apr-20 00:15N 51°19' W 127°54'4 8.7
2018-Apr-19 23:44N 51°15' W 127°52'11 7.9
2018-Apr-19 22:19N 51°05' W 127°43'3 8.8
2018-Apr-19 22:00N 51°03' W 127°40'4 8.4
2018-Apr-19 21:30N 50°60' W 127°36'14 8.7
2018-Apr-19 19:50N 50°51' W 127°18'3 9.4
2018-Apr-19 19:30N 50°49' W 127°14'5 9.4
2018-Apr-19 19:00N 50°46' W 127°09'7 9.4
2018-Apr-19 18:18N 50°43' W 126°59'5 9.2
2018-Apr-19 17:48N 50°41' W 126°53'6 9.5
2018-Apr-19 17:13N 50°38' W 126°46'511.2
2018-Apr-19 16:49N 50°34' W 126°41'5 9.1
2018-Apr-19 16:14N 50°31' W 126°35'210.8
2018-Apr-19 16:00N 50°30' W 126°31'38 8.7
2018-Apr-19 11:42N 50°22' W 125°34'2 6.3
2018-Apr-19 11:23N 50°21' W 125°31'3 7.1
2018-Apr-19 11:00N 50°20' W 125°27'4 7.7
2018-Apr-19 10:30N 50°17' W 125°24'4 9.0
2018-Apr-19 10:00N 50°13' W 125°22'4 8.5
2018-Apr-19 09:30N 50°08' W 125°21'4 8.7
2018-Apr-19 09:01N 50°05' W 125°17'4 8.8
2018-Apr-19 08:30N 50°02' W 125°13'3 6.9
2018-Apr-19 08:00N 49°58' W 125°11'3 6.1
2018-Apr-19 07:30N 49°56' W 125°07'3 6.0
2018-Apr-19 07:00N 49°54' W 125°04'3 6.0
2018-Apr-19 06:30N 49°53' W 125°00'1 2.2
2018-Apr-19 06:01N 49°52' W 124°59'1 1.3
2018-Apr-19 05:30N 49°53' W 124°59'2 3.6
2018-Apr-19 05:00N 49°52' W 125°01'3 6.2
2018-Apr-19 04:30N 49°50' W 124°58'3 6.2
2018-Apr-19 04:00N 49°48' W 124°54'3 6.0
2018-Apr-19 03:30N 49°46' W 124°50'3 6.0
2018-Apr-19 03:00N 49°45' W 124°46'3 5.9
2018-Apr-19 02:31N 49°43' W 124°42'3 6.0
2018-Apr-19 02:00N 49°41' W 124°38'3 5.9
2018-Apr-19 01:30N 49°39' W 124°35'3 5.7
2018-Apr-19 01:00N 49°38' W 124°31'3 5.1
2018-Apr-19 00:29N 49°36' W 124°28'4 6.2
2018-Apr-18 23:55N 49°34' W 124°23'27 6.8
2018-Apr-18 19:56N 49°21' W 123°48'4 8.6
2018-Apr-18 19:30N 49°18' W 123°43'4 8.5
2018-Apr-18 18:59N 49°15' W 123°38'4 8.6
2018-Apr-18 18:30N 49°13' W 123°33'4 8.7
2018-Apr-18 18:00N 49°09' W 123°29'5 8.7
2018-Apr-18 17:24N 49°06' W 123°23'3 8.7
2018-Apr-18 17:00N 49°03' W 123°20'4 8.7
2018-Apr-18 16:30N 49°00' W 123°15'4 8.3
2018-Apr-18 15:59N 48°58' W 123°09'4 8.1
2018-Apr-18 15:26N 48°55' W 123°04'6 8.7
2018-Apr-18 14:44N 48°51' W 122°57'2 9.5
2018-Apr-18 14:29N 48°49' W 122°55'5 9.2
2018-Apr-18 14:00N 48°46' W 122°49'5 9.4
2018-Apr-18 13:29N 48°43' W 122°44'5 9.3
2018-Apr-18 12:59N 48°38' W 122°44'510.4
2018-Apr-18 12:29N 48°33' W 122°45'511.0
2018-Apr-18 12:00N 48°28' W 122°44'610.4
2018-Apr-18 11:27N 48°22' W 122°45'5 9.7
2018-Apr-18 10:56N 48°17' W 122°47'4 8.9
2018-Apr-18 10:30N 48°14' W 122°48'10 7.9
2018-Apr-18 09:16N 48°06' W 122°39'10 9.3
2018-Apr-18 08:10N 47°57' W 122°32'210.2
2018-Apr-18 08:00N 47°56' W 122°30'510.2
2018-Apr-18 07:30N 47°51' W 122°28'510.1
2018-Apr-18 07:00N 47°46' W 122°26'510.3
2018-Apr-18 06:30N 47°41' W 122°27'5 9.3
2018-Apr-18 06:00N 47°37' W 122°24'3 4.7
2018-Apr-18 05:28N 47°35' W 122°21'0 0.1
2018-Apr-18 04:58N 47°35' W 122°21'1 1.4
2018-Apr-18 04:30N 47°36' W 122°22'0 0.4
2018-Apr-18 04:00N 47°35' W 122°22'0 0.0
2018-Apr-18 03:30N 47°35' W 122°22'0 0.2
2018-Apr-18 03:00N 47°35' W 122°22'0 0.2
2018-Apr-18 02:30N 47°35' W 122°22'0 0.0
2018-Apr-18 02:00N 47°35' W 122°22'0 0.2
2018-Apr-18 01:30N 47°35' W 122°22'0 0.1
2018-Apr-18 01:00N 47°36' W 122°22'0 0.2
2018-Apr-18 00:30N 47°36' W 122°22'0 0.2
2018-Apr-18 00:00N 47°36' W 122°22'0 0.1
2018-Apr-17 23:31N 47°36' W 122°22'1 1.4
2018-Apr-17 23:01N 47°35' W 122°21'510.4
2018-Apr-17 22:31N 47°39' W 122°26'2 3.9
2018-Apr-17 22:01N 47°40' W 122°24'1 2.8
2018-Apr-17 21:31N 47°39' W 122°22'0 0.1
2018-Apr-17 21:01N 47°39' W 122°22'0 0.1
2018-Apr-17 20:31N 47°39' W 122°22'0 0.1
2018-Apr-17 20:01N 47°39' W 122°22'0 0.0
2018-Apr-17 19:31N 47°39' W 122°22'0 0.1
2018-Apr-17 19:00N 47°39' W 122°22'0 0.1
2018-Apr-17 18:31N 47°39' W 122°22'0 0.0
2018-Apr-17 18:00N 47°39' W 122°22'0 0.1
2018-Apr-17 17:30N 47°39' W 122°22'0 0.0
2018-Apr-17 17:00N 47°39' W 122°22'0 0.0
2018-Apr-17 16:31N 47°39' W 122°22'0 0.0
2018-Apr-17 16:00N 47°39' W 122°22'0 0.0
2018-Apr-17 15:30N 47°39' W 122°22'  

Dump ship's entire track history